Terminal Aerodrome Forecast
Issued by NWS Tampa Bay Area, FL

Home | Current Version | Previous Version | Text Only | Print | Product List | Glossary On
Versions: 1 2 3 4 5 6 7 8 9 10 11 12 13 14
000
FTUS42 KTBW 250540
TAFSRQ
TAF
KSRQ 250540Z 2506/2606 VRB03KT P6SM SCT050 OVC100
     FM251400 14006KT P6SM SCT030 SCT100
     FM251700 22008KT P6SM VCTS SCT040CB SCT100
     FM252100 27009KT P6SM SCT045 BKN100
     FM260100 VRB04KT P6SM SCT050 OVC250=

USA.gov is the U.S. government's official web portal to all federal, state and local government web resources and services.